Time;durP1;ratioP1;P1;durP2;ratioP2;P2;SDS_P1;SDS_P2;PMS_P1;PMS_P2;Temp;Humidity;BMP_temperature;BMP_pressure;BME280_temperature;BME280_humidity;BME280_pressure;Samples;Min_cycle;Max_cycle;Signal;HPM_P1;HPM_P2
2023/01/13 00:00:42;;;;;;;200.80;89.75;;;;;;;;;;4901477;29;20048;-75
2023/01/13 00:03:31;;;;;;;172.75;73.20;;;;;;;;;;4900955;29;20044;-79
2023/01/13 00:06:55;;;;;;;166.68;74.95;;;;;;;;;;4893709;29;20045;-80
2023/01/13 00:09:43;;;;;;;172.80;79.20;;;;;;;;;;4881001;29;20048;-81
2023/01/13 00:12:35;;;;;;;185.07;89.20;;;;;;;;;;4893470;29;20044;-77
2023/01/13 00:16:19;;;;;;;;;;;;;;;;;;;;;
2023/01/13 00:24:07;;;;;;;343.27;112.95;;;;;;;;;;4892979;29;20387;-81
2023/01/13 00:26:54;;;;;;;424.75;142.65;;;;;;;;;;4894252;29;20041;-80
2023/01/13 00:29:45;;;;;;;628.90;293.65;;;;;;;;;;4902206;29;20044;-81
2023/01/13 00:45:38;;;;;;;196.48;84.10;;;;;;;;;;4898912;29;20057;-80
2023/01/13 00:48:25;;;;;;;176.18;77.30;;;;;;;;;;4900480;29;20041;-80
2023/01/13 00:51:15;;;;;;;148.30;69.82;;;;;;;;;;4900554;29;20486;-80
2023/01/13 00:54:04;;;;;;;185.80;85.07;;;;;;;;;;4900913;29;20052;-81
2023/01/13 00:56:57;;;;;;;180.82;84.85;;;;;;;;;;4900687;29;20044;-80
2023/01/13 01:00:18;;;;;;;201.60;92.03;;;;;;;;;;4900818;29;20052;-80
2023/01/13 01:03:11;;;;;;;188.52;80.82;;;;;;;;;;4898484;29;20053;-80
2023/01/13 01:06:02;;;;;;;219.13;77.32;;;;;;;;;;4900367;29;20048;-79
2023/01/13 01:08:48;;;;;;;205.52;87.78;;;;;;;;;;4900897;29;20052;-80
2023/01/13 01:11:33;;;;;;;273.23;91.53;;;;;;;;;;4900451;29;20052;-79
2023/01/13 01:14:23;;;;;;;247.35;89.68;;;;;;;;;;4906174;29;20044;-80
2023/01/13 01:17:21;;;;;;;362.42;109.47;;;;;;;;;;4901050;29;20052;-80
2023/01/13 01:20:09;;;;;;;392.33;133.23;;;;;;;;;;4906763;29;20036;-80
2023/01/13 01:23:01;;;;;;;317.60;113.35;;;;;;;;;;4900388;29;20049;-81
2023/01/13 01:26:06;;;;;;;356.02;117.75;;;;;;;;;;4900007;29;20380;-80
2023/01/13 01:28:51;;;;;;;299.00;124.88;;;;;;;;;;4891031;29;20053;-82
2023/01/13 01:31:37;;;;;;;359.58;130.38;;;;;;;;;;4900282;29;20052;-83
2023/01/13 01:34:23;;;;;;;407.90;138.68;;;;;;;;;;4891939;29;20066;-84
2023/01/13 01:37:08;;;;;;;334.60;126.70;;;;;;;;;;4899985;29;20048;-83
2023/01/13 01:46:22;;;;;;;206.88;94.88;;;;;;;;;;4906047;29;20057;-85
2023/01/13 01:49:18;;;;;;;;;;;;;;;;;;4892217;29;20045;-82
2023/01/13 01:52:20;;;;;;;189.27;61.00;;;;;;;;;;4899388;29;19916;-85
2023/01/13 01:55:13;;;;;;;149.10;52.65;;;;;;;;;;4904805;29;20048;-84
2023/01/13 01:58:07;;;;;;;152.77;52.85;;;;;;;;;;4891826;29;20053;-84
2023/01/13 02:01:03;;;;;;;152.30;51.55;;;;;;;;;;4899330;29;20052;-83
2023/01/13 02:04:13;;;;;;;154.40;52.45;;;;;;;;;;4891401;29;20483;-82
2023/01/13 02:07:00;;;;;;;148.05;51.83;;;;;;;;;;4899469;29;20048;-83
2023/01/13 02:09:46;;;;;;;72.05;34.38;;;;;;;;;;4899007;29;20040;-83
2023/01/13 02:12:32;;;;;;;115.45;45.38;;;;;;;;;;4899709;29;20053;-84
2023/01/13 02:15:40;;;;;;;150.45;54.90;;;;;;;;;;4899212;29;20048;-84
2023/01/13 02:18:25;;;;;;;152.70;51.92;;;;;;;;;;4891518;29;20048;-83
2023/01/13 02:21:23;;;;;;;157.40;56.10;;;;;;;;;;4899367;29;20048;-83
2023/01/13 02:24:55;;;;;;;139.60;48.78;;;;;;;;;;4898832;29;20048;-85
2023/01/13 02:27:59;;;;;;;93.45;38.88;;;;;;;;;;4899090;29;20052;-85
2023/01/13 02:34:12;;;;;;;146.20;47.20;;;;;;;;;;4904491;29;20048;-83
2023/01/13 02:37:21;;;;;;;153.93;53.85;;;;;;;;;;4898910;29;20049;-86
2023/01/13 02:40:17;;;;;;;111.38;44.65;;;;;;;;;;4898997;29;20052;-83
2023/01/13 02:46:53;;;;;;;156.75;50.00;;;;;;;;;;4898878;29;20056;-83
2023/01/13 02:49:45;;;;;;;143.50;50.58;;;;;;;;;;4898781;29;20048;-85
2023/01/13 02:52:54;;;;;;;107.53;42.53;;;;;;;;;;4903912;29;20052;-85
2023/01/13 02:55:45;;;;;;;136.98;54.78;;;;;;;;;;4898191;29;20040;-85
2023/01/13 02:58:33;;;;;;;136.95;51.28;;;;;;;;;;4898932;29;20048;-85
2023/01/13 03:01:19;;;;;;;129.35;46.15;;;;;;;;;;4904805;29;20048;-83
2023/01/13 03:04:13;;;;;;;136.27;49.40;;;;;;;;;;4898700;29;20048;-83
2023/01/13 03:07:11;;;;;;;124.40;47.40;;;;;;;;;;4898349;29;20053;-84
2023/01/13 03:10:25;;;;;;;126.32;47.58;;;;;;;;;;4898532;29;20045;-83
2023/01/13 03:13:15;;;;;;;120.18;40.90;;;;;;;;;;4880332;29;20036;-84
2023/01/13 03:16:22;;;;;;;117.35;40.45;;;;;;;;;;4890920;29;20060;-85
2023/01/13 03:19:41;;;;;;;104.38;40.88;;;;;;;;;;4903915;29;20044;-83
2023/01/13 03:22:30;;;;;;;99.63;36.90;;;;;;;;;;4894732;29;20052;-83
2023/01/13 03:25:30;;;;;;;109.95;38.17;;;;;;;;;;4902068;29;20044;-85
2023/01/13 03:28:22;;;;;;;127.65;38.22;;;;;;;;;;4902456;29;20053;-85
2023/01/13 03:31:19;;;;;;;116.38;41.38;;;;;;;;;;4902254;29;20045;-86
2023/01/13 03:34:08;;;;;;;157.25;42.45;;;;;;;;;;4901528;29;20491;-86
2023/01/13 03:36:55;;;;;;;128.30;43.08;;;;;;;;;;4902368;29;20041;-86
2023/01/13 03:39:49;;;;;;;139.15;44.47;;;;;;;;;;4901966;29;20045;-84
2023/01/13 03:42:37;;;;;;;134.45;43.97;;;;;;;;;;4901957;29;20052;-84
2023/01/13 03:45:23;;;;;;;138.20;45.05;;;;;;;;;;4902919;29;20040;-86
2023/01/13 03:48:16;;;;;;;121.88;42.58;;;;;;;;;;4901908;29;20048;-84
2023/01/13 03:51:06;;;;;;;136.98;42.30;;;;;;;;;;4902817;29;20052;-86
2023/01/13 03:53:57;;;;;;;125.15;41.80;;;;;;;;;;4894511;29;20044;-84
2023/01/13 03:56:46;;;;;;;121.70;37.70;;;;;;;;;;4887637;29;20044;-86
2023/01/13 03:59:37;;;;;;;110.88;39.03;;;;;;;;;;4902855;29;20044;-84
2023/01/13 04:02:22;;;;;;;119.47;39.03;;;;;;;;;;4901560;29;20052;-85
2023/01/13 04:05:09;;;;;;;117.93;38.33;;;;;;;;;;4908807;29;20048;-86
2023/01/13 04:07:59;;;;;;;114.65;40.83;;;;;;;;;;4901539;29;20048;-84
2023/01/13 04:11:24;;;;;;;135.00;38.80;;;;;;;;;;4888073;29;20395;-84
2023/01/13 04:14:12;;;;;;;119.38;38.40;;;;;;;;;;4880201;29;20037;-84
2023/01/13 04:16:58;;;;;;;93.22;37.13;;;;;;;;;;4901162;29;20053;-89
2023/01/13 04:19:44;;;;;;;97.75;37.35;;;;;;;;;;4880470;29;20045;-87
2023/01/13 04:22:29;;;;;;;110.43;37.60;;;;;;;;;;4906553;29;20487;-88
2023/01/13 04:25:15;;;;;;;114.32;37.72;;;;;;;;;;4899835;29;20040;-87
2023/01/13 04:28:00;;;;;;;113.10;37.33;;;;;;;;;;4893313;29;20048;-87
2023/01/13 04:30:47;;;;;;;111.53;38.15;;;;;;;;;;4900186;29;20053;-87
2023/01/13 04:33:31;;;;;;;111.93;37.15;;;;;;;;;;4898144;29;20041;-86
2023/01/13 04:36:18;;;;;;;104.07;34.10;;;;;;;;;;4892636;29;20048;-86
2023/01/13 04:39:03;;;;;;;94.70;34.55;;;;;;;;;;4892850;29;20056;-88
2023/01/13 04:41:57;;;;;;;123.20;38.75;;;;;;;;;;4886728;29;20048;-87
2023/01/13 04:44:42;;;;;;;105.75;38.95;;;;;;;;;;4899738;29;20041;-87
2023/01/13 04:47:28;;;;;;;104.25;37.65;;;;;;;;;;4901476;29;20044;-88
2023/01/13 04:50:14;;;;;;;90.50;36.05;;;;;;;;;;4893144;29;20048;-88
2023/01/13 04:53:00;;;;;;;102.57;37.08;;;;;;;;;;4900764;29;20414;-88
2023/01/13 04:55:46;;;;;;;101.35;37.40;;;;;;;;;;4900907;29;20044;-86
2023/01/13 04:58:32;;;;;;;102.72;37.33;;;;;;;;;;4906499;29;20056;-86
2023/01/13 05:01:18;;;;;;;87.13;36.20;;;;;;;;;;4899684;29;20049;-86
2023/01/13 05:04:04;;;;;;;70.93;31.63;;;;;;;;;;4905822;29;20053;-87
2023/01/13 05:06:49;;;;;;;69.50;31.80;;;;;;;;;;4900117;29;20044;-86
2023/01/13 05:09:35;;;;;;;74.20;31.95;;;;;;;;;;4900701;29;20432;-88
2023/01/13 05:18:29;;;;;;;93.63;38.70;;;;;;;;;;4906054;29;20048;-86
2023/01/13 05:27:22;;;;;;;68.70;25.40;;;;;;;;;;4899721;29;20044;-86
2023/01/13 05:30:09;;;;;;;86.13;32.78;;;;;;;;;;4899793;29;20053;-85
2023/01/13 05:32:55;;;;;;;142.90;43.33;;;;;;;;;;4905737;29;20052;-87
2023/01/13 05:35:42;;;;;;;146.05;37.20;;;;;;;;;;4892171;29;20040;-87
2023/01/13 05:38:28;;;;;;;179.52;36.78;;;;;;;;;;4893181;29;20052;-87
2023/01/13 05:44:17;;;;;;;135.90;34.50;;;;;;;;;;4899654;29;20407;-88
2023/01/13 05:47:05;;;;;;;127.75;34.58;;;;;;;;;;4905725;29;20052;-88
2023/01/13 05:49:50;;;;;;;110.13;31.52;;;;;;;;;;4899857;29;20483;-87
2023/01/13 05:52:36;;;;;;;153.50;34.88;;;;;;;;;;4879404;29;20048;-85
2023/01/13 05:55:21;;;;;;;147.65;39.85;;;;;;;;;;4898963;29;20048;-88
2023/01/13 05:58:08;;;;;;;117.45;34.20;;;;;;;;;;4898670;29;20052;-85
2023/01/13 06:01:06;;;;;;;125.63;31.45;;;;;;;;;;4890115;29;20052;-86
2023/01/13 06:03:51;;;;;;;147.90;36.30;;;;;;;;;;4897630;29;20409;-86
2023/01/13 06:06:37;;;;;;;113.05;34.65;;;;;;;;;;4878756;29;20041;-88
2023/01/13 06:09:22;;;;;;;120.00;33.05;;;;;;;;;;4898773;29;20399;-88
2023/01/13 06:12:12;;;;;;;151.57;40.45;;;;;;;;;;4898146;29;20040;-85
2023/01/13 06:14:57;;;;;;;123.68;40.55;;;;;;;;;;4898839;29;20045;-84
2023/01/13 06:17:42;;;;;;;173.88;35.60;;;;;;;;;;4899307;29;20128;-86
2023/01/13 06:20:28;;;;;;;139.05;35.85;;;;;;;;;;4901266;29;20471;-86
2023/01/13 06:23:13;;;;;;;142.13;38.58;;;;;;;;;;4901294;29;20048;-85
2023/01/13 06:26:18;;;;;;;164.65;42.00;;;;;;;;;;4899500;29;20048;-86
2023/01/13 06:29:04;;;;;;;186.53;50.20;;;;;;;;;;4901677;29;20048;-86
2023/01/13 06:31:49;;;;;;;91.38;35.00;;;;;;;;;;4905212;29;20283;-84
2023/01/13 06:34:36;;;;;;;176.13;40.22;;;;;;;;;;4900534;29;20045;-86
2023/01/13 06:37:24;;;;;;;146.23;37.63;;;;;;;;;;4900302;29;20040;-86
2023/01/13 06:40:13;;;;;;;111.55;37.20;;;;;;;;;;4898222;29;20418;-85
2023/01/13 06:43:13;;;;;;;117.15;39.63;;;;;;;;;;4891250;29;20494;-84
2023/01/13 06:46:00;;;;;;;136.57;40.58;;;;;;;;;;4892355;29;20044;-84
2023/01/13 06:48:45;;;;;;;135.63;37.50;;;;;;;;;;4891478;29;20048;-83
2023/01/13 06:51:31;;;;;;;172.65;46.40;;;;;;;;;;4898766;29;20045;-82
2023/01/13 06:54:16;;;;;;;140.93;41.50;;;;;;;;;;4899290;29;20040;-85
2023/01/13 06:57:02;;;;;;;147.95;37.72;;;;;;;;;;4885115;29;20502;-85
2023/01/13 06:59:48;;;;;;;117.47;35.33;;;;;;;;;;4899824;29;20391;-86
2023/01/13 07:02:33;;;;;;;117.20;37.20;;;;;;;;;;4897893;29;20044;-84
2023/01/13 07:05:20;;;;;;;108.53;38.28;;;;;;;;;;4899751;29;20511;-85
2023/01/13 07:08:05;;;;;;;148.13;43.83;;;;;;;;;;4899441;29;20048;-86
2023/01/13 07:10:51;;;;;;;122.57;44.42;;;;;;;;;;4899245;29;20044;-86
2023/01/13 07:16:43;;;;;;;79.60;29.65;;;;;;;;;;4905253;29;20044;-87
2023/01/13 07:19:27;;;;;;;105.93;39.17;;;;;;;;;;4900046;29;20491;-85
2023/01/13 07:22:13;;;;;;;117.70;38.80;;;;;;;;;;4891679;29;20045;-87
2023/01/13 07:24:58;;;;;;;121.60;37.22;;;;;;;;;;4899570;29;20037;-86
2023/01/13 07:27:44;;;;;;;115.90;39.90;;;;;;;;;;4904655;29;20052;-86
2023/01/13 07:30:29;;;;;;;118.35;38.75;;;;;;;;;;4902953;29;20044;-85
2023/01/13 07:33:14;;;;;;;103.03;36.45;;;;;;;;;;4907067;29;20056;-86
2023/01/13 07:36:02;;;;;;;112.50;33.58;;;;;;;;;;4904299;29;20045;-85
2023/01/13 07:38:47;;;;;;;139.65;37.22;;;;;;;;;;4905100;29;20052;-87
2023/01/13 07:44:37;;;;;;;;;;;;;;;;;;4908465;29;20483;-84
2023/01/13 07:47:22;;;;;;;91.25;30.67;;;;;;;;;;4901070;29;19915;-86
2023/01/13 07:50:08;;;;;;;82.75;30.98;;;;;;;;;;4904901;29;20049;-85
2023/01/13 07:52:57;;;;;;;96.18;33.28;;;;;;;;;;4902433;29;20048;-86
2023/01/13 07:55:43;;;;;;;39.50;19.73;;;;;;;;;;4899704;29;20044;-85
2023/01/13 07:58:32;;;;;;;109.40;35.38;;;;;;;;;;4909516;29;20045;-85
2023/01/13 08:01:18;;;;;;;112.20;35.28;;;;;;;;;;4899236;29;20048;-84
2023/01/13 08:04:03;;;;;;;112.80;41.13;;;;;;;;;;4899015;29;20052;-85
2023/01/13 08:06:49;;;;;;;150.45;41.30;;;;;;;;;;4904179;29;20395;-85
2023/01/13 08:09:34;;;;;;;122.13;42.80;;;;;;;;;;4899736;29;20048;-84
2023/01/13 08:15:22;;;;;;;97.75;32.97;;;;;;;;;;4903364;29;20048;-86
2023/01/13 08:18:08;;;;;;;75.00;26.73;;;;;;;;;;4901160;29;20056;-87
2023/01/13 08:20:53;;;;;;;90.70;33.45;;;;;;;;;;4900955;29;20048;-87
2023/01/13 08:23:39;;;;;;;102.88;34.83;;;;;;;;;;4901577;29;20048;-87
2023/01/13 08:26:26;;;;;;;110.00;37.33;;;;;;;;;;4902149;29;20045;-86
2023/01/13 08:29:12;;;;;;;117.93;41.50;;;;;;;;;;4902260;29;20407;-87
2023/01/13 08:31:57;;;;;;;40.30;17.88;;;;;;;;;;4907896;29;20495;-85
2023/01/13 08:34:42;;;;;;;87.88;28.48;;;;;;;;;;4901546;29;20044;-86
2023/01/13 08:37:28;;;;;;;94.25;33.78;;;;;;;;;;4901150;29;20048;-85
2023/01/13 08:40:14;;;;;;;88.70;34.60;;;;;;;;;;4899967;29;20045;-85
2023/01/13 08:43:00;;;;;;;102.63;34.50;;;;;;;;;;4900219;29;20430;-85
2023/01/13 08:45:44;;;;;;;25.33;12.60;;;;;;;;;;4880696;29;20049;-84
2023/01/13 08:48:30;;;;;;;66.47;25.05;;;;;;;;;;4900235;29;20048;-85
2023/01/13 08:51:15;;;;;;;56.40;23.50;;;;;;;;;;4901140;29;20052;-84
2023/01/13 08:54:02;;;;;;;27.35;11.75;;;;;;;;;;4893643;29;20395;-86
2023/01/13 08:56:47;;;;;;;54.58;21.00;;;;;;;;;;4901608;29;20052;-85
2023/01/13 08:59:34;;;;;;;74.15;28.73;;;;;;;;;;4893109;29;20048;-82
2023/01/13 09:02:21;;;;;;;46.42;19.63;;;;;;;;;;4899411;29;20048;-86
2023/01/13 09:05:07;;;;;;;40.13;16.83;;;;;;;;;;4901046;29;20049;-84
2023/01/13 09:07:52;;;;;;;39.92;17.70;;;;;;;;;;4900219;29;20052;-83
2023/01/13 09:10:39;;;;;;;92.25;35.55;;;;;;;;;;4886475;29;20049;-83
2023/01/13 09:13:27;;;;;;;110.88;41.90;;;;;;;;;;4906753;29;20056;-88
2023/01/13 09:16:12;;;;;;;49.55;22.17;;;;;;;;;;4892801;29;20044;-83
2023/01/13 09:18:57;;;;;;;54.70;21.85;;;;;;;;;;4899133;29;20056;-86
2023/01/13 09:21:43;;;;;;;36.97;14.50;;;;;;;;;;4900510;29;20044;-85
2023/01/13 09:24:29;;;;;;;41.33;16.25;;;;;;;;;;4899930;29;20049;-83
2023/01/13 09:27:15;;;;;;;19.45;8.68;;;;;;;;;;4892474;29;20048;-85
2023/01/13 09:30:00;;;;;;;36.22;16.15;;;;;;;;;;4899705;29;20427;-86
2023/01/13 09:32:46;;;;;;;46.50;18.83;;;;;;;;;;4900755;29;20049;-84
2023/01/13 09:35:31;;;;;;;40.10;18.60;;;;;;;;;;4892029;29;20044;-84
2023/01/13 09:38:16;;;;;;;45.40;18.83;;;;;;;;;;4899714;29;20044;-85
2023/01/13 09:43:52;;;;;;;63.30;26.17;;;;;;;;;;4899873;29;20487;-85
2023/01/13 09:44:21;;;;;;;62.83;27.58;;;;;;;;;;4901045;29;20045;-84
2023/01/13 09:47:16;;;;;;;65.60;27.05;;;;;;;;;;4900711;29;20048;-84
2023/01/13 09:50:21;;;;;;;62.10;23.75;;;;;;;;;;4902045;29;20052;-80
2023/01/13 09:53:12;;;;;;;57.38;24.20;;;;;;;;;;4907883;29;20053;-79
2023/01/13 09:55:58;;;;;;;62.50;26.52;;;;;;;;;;4900132;29;20037;-79
2023/01/13 09:58:46;;;;;;;77.88;31.13;;;;;;;;;;4900016;29;20052;-80
2023/01/13 10:01:58;;;;;;;65.57;27.65;;;;;;;;;;4906902;29;20036;-80
2023/01/13 10:05:00;;;;;;;59.08;25.42;;;;;;;;;;4899261;29;20044;-81
2023/01/13 10:07:53;;;;;;;64.22;26.42;;;;;;;;;;4899526;29;20052;-81
2023/01/13 10:10:48;;;;;;;60.88;26.83;;;;;;;;;;4899428;29;20048;-81
2023/01/13 10:13:34;;;;;;;59.75;26.27;;;;;;;;;;4905294;29;20052;-81
2023/01/13 10:16:22;;;;;;;62.05;27.05;;;;;;;;;;4906069;29;20053;-79
2023/01/13 10:19:22;;;;;;;73.95;29.60;;;;;;;;;;4899074;29;20044;-80
2023/01/13 10:22:24;;;;;;;127.63;47.00;;;;;;;;;;4899047;29;20048;-80
2023/01/13 10:25:50;;;;;;;71.72;30.90;;;;;;;;;;4899277;29;20048;-82
2023/01/13 10:28:35;;;;;;;69.38;28.58;;;;;;;;;;4897373;29;20057;-81
2023/01/13 10:31:22;;;;;;;60.95;26.77;;;;;;;;;;4904648;29;20491;-82
2023/01/13 10:34:07;;;;;;;67.35;28.73;;;;;;;;;;4899711;29;20057;-79
2023/01/13 10:37:07;;;;;;;65.70;27.02;;;;;;;;;;4905719;29;20044;-80
2023/01/13 10:39:55;;;;;;;85.50;35.83;;;;;;;;;;4905143;29;20494;-79
2023/01/13 10:42:41;;;;;;;73.57;33.35;;;;;;;;;;4898791;29;20048;-82
2023/01/13 10:45:26;;;;;;;74.30;30.40;;;;;;;;;;4898257;29;20040;-84
2023/01/13 10:48:14;;;;;;;83.90;33.22;;;;;;;;;;4903706;29;20055;-79
2023/01/13 10:51:19;;;;;;;79.93;34.60;;;;;;;;;;4898732;29;20060;-81
2023/01/13 10:54:13;;;;;;;77.10;32.90;;;;;;;;;;4905995;29;20044;-81
2023/01/13 10:57:14;;;;;;;96.80;37.28;;;;;;;;;;4898591;29;20048;-83
2023/01/13 11:00:04;;;;;;;90.43;36.35;;;;;;;;;;4904909;29;20410;-83
2023/01/13 11:03:11;;;;;;;177.93;80.15;;;;;;;;;;4904102;29;20048;-82
2023/01/13 11:05:59;;;;;;;89.13;35.10;;;;;;;;;;4907965;29;20044;-82
2023/01/13 11:08:48;;;;;;;157.73;70.90;;;;;;;;;;4901683;29;20052;-85
2023/01/13 11:11:40;;;;;;;98.53;40.70;;;;;;;;;;4903455;29;20452;-89
2023/01/13 11:14:40;;;;;;;93.25;37.45;;;;;;;;;;4903266;29;20037;-87
2023/01/13 11:17:29;;;;;;;82.78;33.72;;;;;;;;;;4889008;29;20045;-88
2023/01/13 11:20:29;;;;;;;74.63;31.77;;;;;;;;;;4903952;29;20048;-88
2023/01/13 11:23:24;;;;;;;81.72;34.08;;;;;;;;;;4897732;29;20044;-88
2023/01/13 11:26:16;;;;;;;80.68;34.42;;;;;;;;;;4889747;29;20052;-89
2023/01/13 11:29:16;;;;;;;83.28;35.33;;;;;;;;;;4898147;29;20479;-86
2023/01/13 11:32:18;;;;;;;96.53;39.03;;;;;;;;;;4884005;29;20048;-89
2023/01/13 11:35:14;;;;;;;107.63;41.42;;;;;;;;;;4898232;29;20036;-89
2023/01/13 11:38:11;;;;;;;119.65;41.08;;;;;;;;;;4897710;29;20052;-88
2023/01/13 11:41:05;;;;;;;114.47;41.70;;;;;;;;;;4898494;29;20048;-85
2023/01/13 11:44:08;;;;;;;113.18;40.85;;;;;;;;;;4907412;29;20053;-88
2023/01/13 11:46:54;;;;;;;123.68;42.97;;;;;;;;;;4901929;29;20491;-88
2023/01/13 11:49:40;;;;;;;122.45;41.45;;;;;;;;;;4901925;29;20053;-85
2023/01/13 11:52:50;;;;;;;128.95;44.83;;;;;;;;;;4901736;29;20044;-88
2023/01/13 11:56:23;;;;;;;117.55;40.58;;;;;;;;;;4902012;29;20044;-84
2023/01/13 11:59:33;;;;;;;133.88;47.50;;;;;;;;;;4843755;29;20057;-90
2023/01/13 12:02:34;;;;;;;141.98;47.20;;;;;;;;;;4901233;29;20041;-88
2023/01/13 12:05:22;;;;;;;84.53;31.83;;;;;;;;;;4900561;29;20407;-88
2023/01/13 12:08:24;;;;;;;81.57;31.27;;;;;;;;;;4893417;29;20048;-89
2023/01/13 12:11:23;;;;;;;78.20;31.20;;;;;;;;;;4893860;29;20057;-90
2023/01/13 12:14:25;;;;;;;93.95;35.65;;;;;;;;;;4901355;29;20052;-86
2023/01/13 12:17:29;;;;;;;86.22;33.20;;;;;;;;;;4907947;29;20495;-88
2023/01/13 12:20:25;;;;;;;96.75;34.53;;;;;;;;;;4893189;29;20067;-88
2023/01/13 12:23:24;;;;;;;66.25;28.50;;;;;;;;;;4901402;29;20048;-88
2023/01/13 12:26:12;;;;;;;86.18;31.58;;;;;;;;;;4906495;29;20048;-89
2023/01/13 12:29:13;;;;;;;104.35;40.13;;;;;;;;;;4901049;29;20490;-91
2023/01/13 12:32:02;;;;;;;78.57;30.60;;;;;;;;;;4880968;29;20041;-88
2023/01/13 12:35:21;;;;;;;104.82;38.92;;;;;;;;;;4900841;29;20044;-85
2023/01/13 12:38:18;;;;;;;100.10;38.30;;;;;;;;;;4893073;29;20044;-87
2023/01/13 12:41:09;;;;;;;93.03;37.13;;;;;;;;;;4901009;29;20044;-85
2023/01/13 12:47:00;;;;;;;156.43;62.58;;;;;;;;;;4900677;29;20056;-87
2023/01/13 12:49:46;;;;;;;96.63;37.50;;;;;;;;;;4892547;29;20490;-86
2023/01/13 12:52:44;;;;;;;95.88;39.33;;;;;;;;;;4900832;29;20056;-86
2023/01/13 12:55:34;;;;;;;107.55;33.88;;;;;;;;;;4892888;29;20044;-86
2023/01/13 12:58:27;;;;;;;155.73;64.78;;;;;;;;;;4892701;29;20044;-88
2023/01/13 13:01:14;;;;;;;130.90;46.70;;;;;;;;;;4892345;29;20474;-88
2023/01/13 13:04:12;;;;;;;115.30;45.55;;;;;;;;;;4892612;29;20044;-86
2023/01/13 13:07:08;;;;;;;111.93;35.88;;;;;;;;;;4892482;29;20045;-88
2023/01/13 13:10:01;;;;;;;97.90;36.40;;;;;;;;;;4894024;29;20407;-86
2023/01/13 13:15:50;;;;;;;111.80;39.28;;;;;;;;;;4900089;29;20070;-87
2023/01/13 13:18:36;;;;;;;104.85;38.10;;;;;;;;;;4900066;29;20048;-87
2023/01/13 13:21:21;;;;;;;107.95;38.47;;;;;;;;;;4900010;29;20040;-87
2023/01/13 13:24:09;;;;;;;97.75;35.55;;;;;;;;;;4900095;29;20037;-87
2023/01/13 13:26:54;;;;;;;91.38;35.85;;;;;;;;;;4898542;29;20399;-88
2023/01/13 13:29:55;;;;;;;88.78;33.75;;;;;;;;;;4900030;29;20057;-85
2023/01/13 13:33:01;;;;;;;90.90;37.00;;;;;;;;;;4898880;29;20052;-88
2023/01/13 13:36:19;;;;;;;96.03;36.65;;;;;;;;;;4905582;29;20044;-87
2023/01/13 13:48:54;;;;;;;113.55;43.78;;;;;;;;;;4899996;29;19916;-86
2023/01/13 13:52:09;;;;;;;108.20;39.17;;;;;;;;;;4899848;29;20045;-86
2023/01/13 13:55:04;;;;;;;92.70;36.53;;;;;;;;;;4885295;29;20048;-85
2023/01/13 13:57:52;;;;;;;99.53;37.70;;;;;;;;;;4899640;29;20048;-87
2023/01/13 14:00:37;;;;;;;138.52;49.10;;;;;;;;;;4899464;29;20052;-87
2023/01/13 14:03:26;;;;;;;94.35;37.10;;;;;;;;;;4885740;29;20048;-85
2023/01/13 14:06:23;;;;;;;95.05;37.72;;;;;;;;;;4898818;29;20036;-86
2023/01/13 14:09:18;;;;;;;115.75;41.13;;;;;;;;;;4885208;29;20052;-84
2023/01/13 14:12:07;;;;;;;120.57;40.72;;;;;;;;;;4898412;29;20052;-86
2023/01/13 14:14:56;;;;;;;129.82;43.97;;;;;;;;;;4898447;29;20049;-88
2023/01/13 14:17:41;;;;;;;118.30;43.38;;;;;;;;;;4899659;29;20044;-88
2023/01/13 14:20:27;;;;;;;137.10;45.75;;;;;;;;;;4900243;29;20166;-87
2023/01/13 14:23:16;;;;;;;108.30;40.08;;;;;;;;;;4898922;29;20482;-87
2023/01/13 14:26:07;;;;;;;152.70;47.70;;;;;;;;;;4898520;29;20403;-85
2023/01/13 14:28:54;;;;;;;160.52;54.63;;;;;;;;;;4898719;29;20391;-85
2023/01/13 14:31:39;;;;;;;129.95;47.28;;;;;;;;;;4898893;29;20052;-85
2023/01/13 14:34:26;;;;;;;101.88;36.50;;;;;;;;;;4898869;29;20053;-84
2023/01/13 14:37:21;;;;;;;120.15;39.58;;;;;;;;;;4884553;29;20044;-84
2023/01/13 14:40:37;;;;;;;118.57;42.95;;;;;;;;;;4904420;29;20052;-87
2023/01/13 14:43:24;;;;;;;132.20;41.45;;;;;;;;;;4898234;29;20041;-86
2023/01/13 14:46:10;;;;;;;138.65;43.83;;;;;;;;;;4898690;29;20056;-85
2023/01/13 14:49:00;;;;;;;129.50;41.70;;;;;;;;;;4898930;29;20040;-85
2023/01/13 14:51:45;;;;;;;124.38;39.85;;;;;;;;;;4903850;29;20491;-85
2023/01/13 14:54:47;;;;;;;109.53;37.13;;;;;;;;;;4898537;29;20052;-87
2023/01/13 14:57:38;;;;;;;64.10;25.75;;;;;;;;;;4898493;29;20487;-85
2023/01/13 15:00:24;;;;;;;144.05;43.90;;;;;;;;;;4899084;29;20056;-86
2023/01/13 15:03:13;;;;;;;158.73;45.88;;;;;;;;;;4898761;29;20045;-88
2023/01/13 15:05:59;;;;;;;141.52;42.78;;;;;;;;;;4898236;29;20045;-86
2023/01/13 15:08:45;;;;;;;165.02;49.08;;;;;;;;;;4898360;29;20049;-88
2023/01/13 15:11:30;;;;;;;176.95;50.17;;;;;;;;;;4899660;29;20040;-86
2023/01/13 15:14:24;;;;;;;154.95;45.25;;;;;;;;;;4904622;29;20048;-86
2023/01/13 15:17:15;;;;;;;199.00;66.53;;;;;;;;;;4907333;29;20040;-85
2023/01/13 15:20:02;;;;;;;165.68;51.28;;;;;;;;;;4908062;29;20060;-87
2023/01/13 15:22:48;;;;;;;165.23;49.72;;;;;;;;;;4909475;29;20048;-88
2023/01/13 15:25:36;;;;;;;140.15;44.15;;;;;;;;;;4903359;29;20406;-86
2023/01/13 15:28:24;;;;;;;154.45;47.20;;;;;;;;;;4905313;29;20060;-85
2023/01/13 15:31:09;;;;;;;138.02;47.08;;;;;;;;;;4891639;29;20056;-84
2023/01/13 15:33:54;;;;;;;119.35;39.95;;;;;;;;;;4904215;29;20048;-88
2023/01/13 15:36:39;;;;;;;138.88;44.00;;;;;;;;;;4902831;29;20048;-87
2023/01/13 15:39:25;;;;;;;142.35;42.22;;;;;;;;;;4903504;29;20490;-88
2023/01/13 15:48:22;;;;;;;146.07;48.13;;;;;;;;;;4904905;29;20052;-86
2023/01/13 15:51:10;;;;;;;172.15;53.10;;;;;;;;;;4902600;29;20446;-86
2023/01/13 15:53:59;;;;;;;165.48;49.10;;;;;;;;;;4901177;29;20056;-89
2023/01/13 15:56:45;;;;;;;164.10;53.58;;;;;;;;;;4901175;29;20041;-87
2023/01/13 15:59:33;;;;;;;163.02;48.13;;;;;;;;;;4898255;29;20056;-85
2023/01/13 16:02:21;;;;;;;164.15;49.88;;;;;;;;;;4890362;29;20044;-85
2023/01/13 16:05:07;;;;;;;193.23;51.08;;;;;;;;;;4897353;29;20048;-87
2023/01/13 16:07:53;;;;;;;166.93;51.60;;;;;;;;;;4902110;29;20478;-85
2023/01/13 16:10:39;;;;;;;197.32;55.17;;;;;;;;;;4907524;29;20044;-87
2023/01/13 16:13:25;;;;;;;215.88;57.67;;;;;;;;;;4907092;29;20048;-87
2023/01/13 16:16:23;;;;;;;189.98;51.67;;;;;;;;;;4901993;29;20049;-85
2023/01/13 16:19:10;;;;;;;171.30;47.83;;;;;;;;;;4902877;29;20040;-86
2023/01/13 16:21:58;;;;;;;212.18;60.15;;;;;;;;;;4902592;29;20044;-86
2023/01/13 16:24:44;;;;;;;166.68;48.70;;;;;;;;;;4907084;29;20049;-87
2023/01/13 16:27:29;;;;;;;137.88;42.97;;;;;;;;;;4901139;29;20403;-85
2023/01/13 16:30:18;;;;;;;156.40;44.83;;;;;;;;;;4900664;29;20049;-86
2023/01/13 16:33:03;;;;;;;142.45;46.90;;;;;;;;;;4907348;29;20049;-84
2023/01/13 16:35:48;;;;;;;164.70;47.65;;;;;;;;;;4902156;29;20040;-84
2023/01/13 16:38:35;;;;;;;178.18;52.78;;;;;;;;;;4892990;29;20048;-87
2023/01/13 16:41:21;;;;;;;161.48;51.83;;;;;;;;;;4888201;29;20048;-84
2023/01/13 16:44:06;;;;;;;180.98;49.33;;;;;;;;;;4906032;29;20044;-80
2023/01/13 16:46:52;;;;;;;179.05;53.30;;;;;;;;;;4900626;29;20032;-83
2023/01/13 16:49:37;;;;;;;181.98;52.35;;;;;;;;;;4904826;29;20044;-83
2023/01/13 16:52:23;;;;;;;197.63;59.85;;;;;;;;;;4896013;29;20044;-86
2023/01/13 16:55:08;;;;;;;188.15;53.13;;;;;;;;;;4901108;29;20044;-83
2023/01/13 16:57:54;;;;;;;174.80;45.13;;;;;;;;;;4899898;29;20045;-83
2023/01/13 17:00:39;;;;;;;177.52;51.78;;;;;;;;;;4900465;29;20052;-82
2023/01/13 17:03:28;;;;;;;169.50;50.53;;;;;;;;;;4902355;29;20037;-84
2023/01/13 17:06:16;;;;;;;167.90;50.17;;;;;;;;;;4900822;29;20044;-83
2023/01/13 17:09:07;;;;;;;151.13;44.15;;;;;;;;;;4900620;29;20052;-83
2023/01/13 17:11:55;;;;;;;124.28;38.88;;;;;;;;;;4901445;29;20056;-85
2023/01/13 17:14:42;;;;;;;180.00;48.25;;;;;;;;;;4902026;29;20495;-82
2023/01/13 17:17:27;;;;;;;168.95;46.10;;;;;;;;;;4900311;29;20044;-84
2023/01/13 17:20:17;;;;;;;168.50;53.65;;;;;;;;;;4900643;29;20044;-84
2023/01/13 17:23:05;;;;;;;194.23;54.25;;;;;;;;;;4893210;29;20052;-85
2023/01/13 17:26:31;;;;;;;182.77;56.45;;;;;;;;;;4892788;29;20650;-86
2023/01/13 17:47:34;;;;;;;123.18;38.08;;;;;;;;;;4720789;30;20065;-82
2023/01/13 17:50:22;;;;;;;151.73;46.08;;;;;;;;;;4822738;29;20067;-85
2023/01/13 17:53:07;;;;;;;168.75;57.63;;;;;;;;;;4873004;29;20049;-84
2023/01/13 17:55:54;;;;;;;158.15;50.83;;;;;;;;;;4885855;29;20044;-86
2023/01/13 17:58:46;;;;;;;130.15;41.67;;;;;;;;;;4881313;29;20053;-84
2023/01/13 18:01:32;;;;;;;131.80;45.95;;;;;;;;;;4879890;29;20049;-83